sensor_id;sensor_type;location;lat;lon;timestamp;P1;durP1;ratioP1;P2;durP2;ratioP2
13603;SDS011;24578;48.264;11.436;2023-04-10T00:02:23;23.62;;;22.87;;
13603;SDS011;24578;48.264;11.436;2023-04-10T00:05:45;23.31;;;22.69;;
13603;SDS011;24578;48.264;11.436;2023-04-10T00:09:07;23.65;;;22.95;;
13603;SDS011;24578;48.264;11.436;2023-04-10T00:12:30;22.44;;;22.29;;
13603;SDS011;24578;48.264;11.436;2023-04-10T00:15:51;22.87;;;22.44;;
13603;SDS011;24578;48.264;11.436;2023-04-10T00:19:13;24.36;;;23.60;;
13603;SDS011;24578;48.264;11.436;2023-04-10T00:22:35;24.30;;;23.53;;
13603;SDS011;24578;48.264;11.436;2023-04-10T00:25:57;24.44;;;23.47;;
13603;SDS011;24578;48.264;11.436;2023-04-10T00:29:19;24.51;;;23.77;;
13603;SDS011;24578;48.264;11.436;2023-04-10T00:32:40;23.51;;;22.86;;
13603;SDS011;24578;48.264;11.436;2023-04-10T00:36:04;24.17;;;23.62;;
13603;SDS011;24578;48.264;11.436;2023-04-10T00:39:26;28.07;;;27.19;;
13603;SDS011;24578;48.264;11.436;2023-04-10T00:42:47;28.50;;;27.76;;
13603;SDS011;24578;48.264;11.436;2023-04-10T00:46:09;28.98;;;28.21;;
13603;SDS011;24578;48.264;11.436;2023-04-10T00:49:32;28.90;;;27.93;;
13603;SDS011;24578;48.264;11.436;2023-04-10T00:52:55;27.61;;;26.81;;
13603;SDS011;24578;48.264;11.436;2023-04-10T00:56:17;26.54;;;25.76;;
13603;SDS011;24578;48.264;11.436;2023-04-10T00:59:39;27.16;;;26.28;;
13603;SDS011;24578;48.264;11.436;2023-04-10T01:03:02;26.23;;;25.43;;
13603;SDS011;24578;48.264;11.436;2023-04-10T01:06:46;26.28;;;25.38;;
13603;SDS011;24578;48.264;11.436;2023-04-10T01:21:40;25.12;;;24.39;;
13603;SDS011;24578;48.264;11.436;2023-04-10T01:32:02;25.82;;;25.40;;
13603;SDS011;24578;48.264;11.436;2023-04-10T01:35:31;26.01;;;25.24;;
13603;SDS011;24578;48.264;11.436;2023-04-10T01:38:55;26.46;;;25.56;;
13603;SDS011;24578;48.264;11.436;2023-04-10T01:42:19;25.92;;;25.27;;
13603;SDS011;24578;48.264;11.436;2023-04-10T01:45:43;25.28;;;24.84;;
13603;SDS011;24578;48.264;11.436;2023-04-10T01:49:08;26.21;;;25.49;;
13603;SDS011;24578;48.264;11.436;2023-04-10T01:52:32;25.98;;;25.28;;
13603;SDS011;24578;48.264;11.436;2023-04-10T01:55:55;25.34;;;24.85;;
13603;SDS011;24578;48.264;11.436;2023-04-10T01:59:18;26.72;;;25.84;;
13603;SDS011;24578;48.264;11.436;2023-04-10T02:02:41;25.67;;;25.16;;
13603;SDS011;24578;48.264;11.436;2023-04-10T02:06:10;26.89;;;26.22;;
13603;SDS011;24578;48.264;11.436;2023-04-10T02:09:44;27.82;;;26.78;;
13603;SDS011;24578;48.264;11.436;2023-04-10T02:13:16;27.93;;;26.83;;
13603;SDS011;24578;48.264;11.436;2023-04-10T02:16:42;27.48;;;26.53;;
13603;SDS011;24578;48.264;11.436;2023-04-10T02:20:05;27.75;;;26.76;;
13603;SDS011;24578;48.264;11.436;2023-04-10T02:23:30;27.48;;;26.64;;
13603;SDS011;24578;48.264;11.436;2023-04-10T02:26:52;27.33;;;26.46;;
13603;SDS011;24578;48.264;11.436;2023-04-10T02:30:14;27.64;;;26.91;;
13603;SDS011;24578;48.264;11.436;2023-04-10T02:33:36;26.98;;;26.19;;
13603;SDS011;24578;48.264;11.436;2023-04-10T02:36:58;27.21;;;26.32;;
13603;SDS011;24578;48.264;11.436;2023-04-10T02:40:21;27.58;;;26.62;;
13603;SDS011;24578;48.264;11.436;2023-04-10T02:43:43;27.54;;;26.74;;
13603;SDS011;24578;48.264;11.436;2023-04-10T02:47:04;27.07;;;26.28;;
13603;SDS011;24578;48.264;11.436;2023-04-10T02:50:27;27.92;;;27.05;;
13603;SDS011;24578;48.264;11.436;2023-04-10T02:53:50;27.16;;;26.32;;
13603;SDS011;24578;48.264;11.436;2023-04-10T02:57:13;28.41;;;27.22;;
13603;SDS011;24578;48.264;11.436;2023-04-10T03:00:35;27.12;;;26.15;;
13603;SDS011;24578;48.264;11.436;2023-04-10T03:03:56;27.57;;;26.55;;
13603;SDS011;24578;48.264;11.436;2023-04-10T03:07:18;27.01;;;26.00;;
13603;SDS011;24578;48.264;11.436;2023-04-10T03:10:42;27.21;;;26.14;;
13603;SDS011;24578;48.264;11.436;2023-04-10T03:14:05;26.57;;;25.30;;
13603;SDS011;24578;48.264;11.436;2023-04-10T03:17:29;27.69;;;26.42;;
13603;SDS011;24578;48.264;11.436;2023-04-10T03:20:51;27.55;;;26.48;;
13603;SDS011;24578;48.264;11.436;2023-04-10T03:24:13;26.70;;;25.74;;
13603;SDS011;24578;48.264;11.436;2023-04-10T03:27:35;26.95;;;26.04;;
13603;SDS011;24578;48.264;11.436;2023-04-10T03:30:56;26.89;;;26.04;;
13603;SDS011;24578;48.264;11.436;2023-04-10T03:34:18;27.26;;;26.35;;
13603;SDS011;24578;48.264;11.436;2023-04-10T03:37:40;27.43;;;26.36;;
13603;SDS011;24578;48.264;11.436;2023-04-10T03:41:02;27.34;;;26.17;;
13603;SDS011;24578;48.264;11.436;2023-04-10T03:44:24;27.56;;;26.57;;
13603;SDS011;24578;48.264;11.436;2023-04-10T03:47:46;27.77;;;26.79;;
13603;SDS011;24578;48.264;11.436;2023-04-10T03:51:08;28.14;;;27.30;;
13603;SDS011;24578;48.264;11.436;2023-04-10T03:54:30;28.59;;;27.65;;
13603;SDS011;24578;48.264;11.436;2023-04-10T03:57:52;27.47;;;26.46;;
13603;SDS011;24578;48.264;11.436;2023-04-10T04:01:13;28.78;;;27.65;;
13603;SDS011;24578;48.264;11.436;2023-04-10T04:04:35;27.91;;;27.33;;
13603;SDS011;24578;48.264;11.436;2023-04-10T04:07:57;28.74;;;27.77;;
13603;SDS011;24578;48.264;11.436;2023-04-10T04:11:19;29.22;;;28.06;;
13603;SDS011;24578;48.264;11.436;2023-04-10T04:14:41;28.78;;;27.72;;
13603;SDS011;24578;48.264;11.436;2023-04-10T04:18:04;29.79;;;28.62;;
13603;SDS011;24578;48.264;11.436;2023-04-10T04:21:26;30.20;;;29.03;;
13603;SDS011;24578;48.264;11.436;2023-04-10T04:24:48;29.71;;;28.55;;
13603;SDS011;24578;48.264;11.436;2023-04-10T04:28:10;30.24;;;28.96;;
13603;SDS011;24578;48.264;11.436;2023-04-10T04:31:33;30.24;;;29.32;;
13603;SDS011;24578;48.264;11.436;2023-04-10T04:34:55;30.47;;;29.29;;
13603;SDS011;24578;48.264;11.436;2023-04-10T04:38:17;30.59;;;29.60;;
13603;SDS011;24578;48.264;11.436;2023-04-10T04:41:40;31.21;;;30.26;;
13603;SDS011;24578;48.264;11.436;2023-04-10T04:45:02;31.90;;;30.61;;
13603;SDS011;24578;48.264;11.436;2023-04-10T04:48:24;31.56;;;30.44;;
13603;SDS011;24578;48.264;11.436;2023-04-10T04:51:45;30.99;;;29.77;;
13603;SDS011;24578;48.264;11.436;2023-04-10T04:55:07;32.38;;;30.95;;
13603;SDS011;24578;48.264;11.436;2023-04-10T04:58:29;31.76;;;30.61;;
13603;SDS011;24578;48.264;11.436;2023-04-10T05:01:51;31.43;;;30.45;;
13603;SDS011;24578;48.264;11.436;2023-04-10T05:05:13;32.24;;;30.85;;
13603;SDS011;24578;48.264;11.436;2023-04-10T05:08:35;32.80;;;31.51;;
13603;SDS011;24578;48.264;11.436;2023-04-10T05:11:59;33.16;;;32.01;;
13603;SDS011;24578;48.264;11.436;2023-04-10T05:15:21;34.80;;;33.28;;
13603;SDS011;24578;48.264;11.436;2023-04-10T05:18:45;33.67;;;32.43;;
13603;SDS011;24578;48.264;11.436;2023-04-10T05:22:07;34.09;;;32.74;;
13603;SDS011;24578;48.264;11.436;2023-04-10T05:25:29;33.19;;;32.12;;
13603;SDS011;24578;48.264;11.436;2023-04-10T05:28:51;32.76;;;31.57;;
13603;SDS011;24578;48.264;11.436;2023-04-10T05:32:13;33.04;;;31.69;;
13603;SDS011;24578;48.264;11.436;2023-04-10T05:35:35;31.33;;;30.26;;
13603;SDS011;24578;48.264;11.436;2023-04-10T05:38:56;31.58;;;30.34;;
13603;SDS011;24578;48.264;11.436;2023-04-10T05:42:18;30.47;;;29.31;;
13603;SDS011;24578;48.264;11.436;2023-04-10T05:45:42;29.03;;;28.14;;
13603;SDS011;24578;48.264;11.436;2023-04-10T05:49:05;28.97;;;27.91;;
13603;SDS011;24578;48.264;11.436;2023-04-10T05:52:26;26.94;;;25.97;;
13603;SDS011;24578;48.264;11.436;2023-04-10T05:55:49;26.96;;;25.86;;
13603;SDS011;24578;48.264;11.436;2023-04-10T05:59:11;25.72;;;24.81;;
13603;SDS011;24578;48.264;11.436;2023-04-10T06:02:34;25.02;;;24.44;;
13603;SDS011;24578;48.264;11.436;2023-04-10T06:05:56;30.41;;;29.49;;
13603;SDS011;24578;48.264;11.436;2023-04-10T06:09:18;35.03;;;34.23;;
13603;SDS011;24578;48.264;11.436;2023-04-10T06:12:40;56.23;;;54.60;;
13603;SDS011;24578;48.264;11.436;2023-04-10T06:16:02;24.83;;;24.37;;
13603;SDS011;24578;48.264;11.436;2023-04-10T06:19:24;20.61;;;20.32;;
13603;SDS011;24578;48.264;11.436;2023-04-10T06:22:45;19.48;;;19.44;;
13603;SDS011;24578;48.264;11.436;2023-04-10T06:26:07;20.52;;;20.00;;
13603;SDS011;24578;48.264;11.436;2023-04-10T06:29:30;20.16;;;19.61;;
13603;SDS011;24578;48.264;11.436;2023-04-10T06:32:52;19.48;;;19.16;;
13603;SDS011;24578;48.264;11.436;2023-04-10T06:36:14;18.84;;;18.56;;
13603;SDS011;24578;48.264;11.436;2023-04-10T06:39:36;18.49;;;18.40;;
13603;SDS011;24578;48.264;11.436;2023-04-10T06:42:59;18.24;;;18.22;;
13603;SDS011;24578;48.264;11.436;2023-04-10T06:46:21;18.15;;;18.15;;
13603;SDS011;24578;48.264;11.436;2023-04-10T06:49:43;34.68;;;34.60;;
13603;SDS011;24578;48.264;11.436;2023-04-10T06:53:04;20.85;;;20.60;;
13603;SDS011;24578;48.264;11.436;2023-04-10T06:56:26;16.72;;;16.48;;
13603;SDS011;24578;48.264;11.436;2023-04-10T06:59:48;18.47;;;18.37;;
13603;SDS011;24578;48.264;11.436;2023-04-10T07:03:10;16.18;;;16.14;;
13603;SDS011;24578;48.264;11.436;2023-04-10T07:06:32;16.35;;;16.04;;
13603;SDS011;24578;48.264;11.436;2023-04-10T07:10:02;16.71;;;16.32;;
13603;SDS011;24578;48.264;11.436;2023-04-10T07:13:25;21.11;;;20.87;;
13603;SDS011;24578;48.264;11.436;2023-04-10T07:16:47;19.26;;;18.69;;
13603;SDS011;24578;48.264;11.436;2023-04-10T07:20:09;14.32;;;14.17;;
13603;SDS011;24578;48.264;11.436;2023-04-10T07:23:31;14.44;;;14.23;;
13603;SDS011;24578;48.264;11.436;2023-04-10T07:26:53;14.16;;;14.09;;
13603;SDS011;24578;48.264;11.436;2023-04-10T07:30:15;13.80;;;13.69;;
13603;SDS011;24578;48.264;11.436;2023-04-10T07:33:38;13.64;;;13.55;;
13603;SDS011;24578;48.264;11.436;2023-04-10T07:37:00;15.19;;;15.11;;
13603;SDS011;24578;48.264;11.436;2023-04-10T07:40:21;17.09;;;16.80;;
13603;SDS011;24578;48.264;11.436;2023-04-10T07:43:43;14.14;;;14.03;;
13603;SDS011;24578;48.264;11.436;2023-04-10T07:47:06;15.33;;;15.16;;
13603;SDS011;24578;48.264;11.436;2023-04-10T07:50:28;29.57;;;29.19;;
13603;SDS011;24578;48.264;11.436;2023-04-10T07:53:50;13.05;;;13.05;;
13603;SDS011;24578;48.264;11.436;2023-04-10T07:57:12;12.51;;;12.51;;
13603;SDS011;24578;48.264;11.436;2023-04-10T08:00:34;12.41;;;12.39;;
13603;SDS011;24578;48.264;11.436;2023-04-10T08:03:56;12.48;;;12.48;;
13603;SDS011;24578;48.264;11.436;2023-04-10T08:07:19;12.61;;;12.59;;
13603;SDS011;24578;48.264;11.436;2023-04-10T08:10:42;12.40;;;12.40;;
13603;SDS011;24578;48.264;11.436;2023-04-10T08:14:04;12.86;;;12.82;;
13603;SDS011;24578;48.264;11.436;2023-04-10T08:17:27;12.60;;;12.54;;
13603;SDS011;24578;48.264;11.436;2023-04-10T08:20:49;12.15;;;12.11;;
13603;SDS011;24578;48.264;11.436;2023-04-10T08:24:10;12.15;;;12.15;;
13603;SDS011;24578;48.264;11.436;2023-04-10T08:27:32;17.06;;;17.06;;
13603;SDS011;24578;48.264;11.436;2023-04-10T08:30:54;18.44;;;18.43;;
13603;SDS011;24578;48.264;11.436;2023-04-10T08:34:15;14.98;;;14.79;;
13603;SDS011;24578;48.264;11.436;2023-04-10T08:37:37;18.64;;;18.39;;
13603;SDS011;24578;48.264;11.436;2023-04-10T08:40:59;12.13;;;12.00;;
13603;SDS011;24578;48.264;11.436;2023-04-10T08:44:21;11.73;;;11.68;;
13603;SDS011;24578;48.264;11.436;2023-04-10T08:47:43;11.38;;;11.36;;
13603;SDS011;24578;48.264;11.436;2023-04-10T08:51:09;10.94;;;10.90;;
13603;SDS011;24578;48.264;11.436;2023-04-10T08:54:37;10.55;;;10.55;;
13603;SDS011;24578;48.264;11.436;2023-04-10T08:58:01;10.63;;;10.60;;
13603;SDS011;24578;48.264;11.436;2023-04-10T09:01:23;10.71;;;10.71;;
13603;SDS011;24578;48.264;11.436;2023-04-10T09:04:46;10.14;;;10.14;;
13603;SDS011;24578;48.264;11.436;2023-04-10T09:08:13;10.91;;;10.75;;
13603;SDS011;24578;48.264;11.436;2023-04-10T09:12:11;11.03;;;10.84;;
13603;SDS011;24578;48.264;11.436;2023-04-10T09:15:25;10.95;;;10.95;;
13603;SDS011;24578;48.264;11.436;2023-04-10T09:18:47;11.18;;;11.17;;
13603;SDS011;24578;48.264;11.436;2023-04-10T09:22:11;10.23;;;10.23;;
13603;SDS011;24578;48.264;11.436;2023-04-10T09:25:34;10.12;;;10.05;;
13603;SDS011;24578;48.264;11.436;2023-04-10T09:29:03;9.87;;;9.81;;
13603;SDS011;24578;48.264;11.436;2023-04-10T09:36:02;9.83;;;9.77;;
13603;SDS011;24578;48.264;11.436;2023-04-10T09:39:34;8.95;;;8.92;;
13603;SDS011;24578;48.264;11.436;2023-04-10T09:42:58;16.44;;;16.20;;
13603;SDS011;24578;48.264;11.436;2023-04-10T09:46:26;9.42;;;9.23;;
13603;SDS011;24578;48.264;11.436;2023-04-10T09:49:52;8.33;;;8.33;;
13603;SDS011;24578;48.264;11.436;2023-04-10T09:53:17;13.23;;;13.23;;
13603;SDS011;24578;48.264;11.436;2023-04-10T09:56:40;28.63;;;28.09;;
13603;SDS011;24578;48.264;11.436;2023-04-10T10:00:06;8.71;;;8.71;;
13603;SDS011;24578;48.264;11.436;2023-04-10T10:03:29;10.95;;;10.94;;
13603;SDS011;24578;48.264;11.436;2023-04-10T10:06:51;18.33;;;18.10;;
13603;SDS011;24578;48.264;11.436;2023-04-10T10:10:13;7.61;;;7.61;;
13603;SDS011;24578;48.264;11.436;2023-04-10T10:13:51;7.72;;;7.72;;
13603;SDS011;24578;48.264;11.436;2023-04-10T10:17:16;7.46;;;7.46;;
13603;SDS011;24578;48.264;11.436;2023-04-10T10:20:42;7.98;;;7.94;;
13603;SDS011;24578;48.264;11.436;2023-04-10T10:24:06;7.24;;;7.24;;
13603;SDS011;24578;48.264;11.436;2023-04-10T10:27:29;7.35;;;7.35;;
13603;SDS011;24578;48.264;11.436;2023-04-10T10:30:55;6.58;;;6.58;;
13603;SDS011;24578;48.264;11.436;2023-04-10T10:34:17;9.36;;;9.36;;
13603;SDS011;24578;48.264;11.436;2023-04-10T10:37:40;7.73;;;7.73;;
13603;SDS011;24578;48.264;11.436;2023-04-10T10:45:33;9.97;;;9.97;;
13603;SDS011;24578;48.264;11.436;2023-04-10T10:48:56;7.35;;;7.35;;
13603;SDS011;24578;48.264;11.436;2023-04-10T11:06:50;8.76;;;8.73;;
13603;SDS011;24578;48.264;11.436;2023-04-10T11:10:12;9.18;;;9.16;;
13603;SDS011;24578;48.264;11.436;2023-04-10T11:13:35;9.06;;;9.06;;
13603;SDS011;24578;48.264;11.436;2023-04-10T11:16:59;12.70;;;12.70;;
13603;SDS011;24578;48.264;11.436;2023-04-10T11:20:24;7.95;;;7.95;;
13603;SDS011;24578;48.264;11.436;2023-04-10T11:27:36;8.35;;;8.35;;
13603;SDS011;24578;48.264;11.436;2023-04-10T11:34:37;8.37;;;8.37;;
13603;SDS011;24578;48.264;11.436;2023-04-10T11:38:12;8.29;;;8.29;;
13603;SDS011;24578;48.264;11.436;2023-04-10T11:41:35;8.24;;;8.24;;
13603;SDS011;24578;48.264;11.436;2023-04-10T11:44:59;8.41;;;8.41;;
13603;SDS011;24578;48.264;11.436;2023-04-10T11:48:51;10.27;;;10.21;;
13603;SDS011;24578;48.264;11.436;2023-04-10T11:52:14;8.51;;;8.47;;
13603;SDS011;24578;48.264;11.436;2023-04-10T11:55:47;7.94;;;7.88;;
13603;SDS011;24578;48.264;11.436;2023-04-10T11:59:09;7.55;;;7.55;;
13603;SDS011;24578;48.264;11.436;2023-04-10T12:02:33;8.26;;;8.19;;
13603;SDS011;24578;48.264;11.436;2023-04-10T12:05:55;8.42;;;8.24;;
13603;SDS011;24578;48.264;11.436;2023-04-10T12:09:20;7.80;;;7.80;;
13603;SDS011;24578;48.264;11.436;2023-04-10T12:12:42;8.40;;;8.40;;
13603;SDS011;24578;48.264;11.436;2023-04-10T12:16:08;10.07;;;9.89;;
13603;SDS011;24578;48.264;11.436;2023-04-10T12:19:31;10.38;;;10.24;;
13603;SDS011;24578;48.264;11.436;2023-04-10T12:22:54;7.62;;;7.62;;
13603;SDS011;24578;48.264;11.436;2023-04-10T12:26:17;7.30;;;7.26;;
13603;SDS011;24578;48.264;11.436;2023-04-10T12:29:39;7.97;;;7.73;;
13603;SDS011;24578;48.264;11.436;2023-04-10T12:33:01;7.51;;;7.43;;
13603;SDS011;24578;48.264;11.436;2023-04-10T12:36:26;7.56;;;7.56;;
13603;SDS011;24578;48.264;11.436;2023-04-10T12:39:50;6.59;;;6.59;;
13603;SDS011;24578;48.264;11.436;2023-04-10T12:43:27;6.50;;;6.50;;
13603;SDS011;24578;48.264;11.436;2023-04-10T12:47:00;6.89;;;6.89;;
13603;SDS011;24578;48.264;11.436;2023-04-10T12:50:22;7.12;;;7.12;;
13603;SDS011;24578;48.264;11.436;2023-04-10T12:53:44;6.67;;;6.67;;
13603;SDS011;24578;48.264;11.436;2023-04-10T12:57:06;6.88;;;6.81;;
13603;SDS011;24578;48.264;11.436;2023-04-10T13:00:28;6.30;;;6.30;;
13603;SDS011;24578;48.264;11.436;2023-04-10T13:03:50;6.42;;;6.42;;
13603;SDS011;24578;48.264;11.436;2023-04-10T13:07:12;7.85;;;7.84;;
13603;SDS011;24578;48.264;11.436;2023-04-10T13:10:34;11.96;;;11.96;;
13603;SDS011;24578;48.264;11.436;2023-04-10T13:13:58;6.18;;;6.18;;
13603;SDS011;24578;48.264;11.436;2023-04-10T13:17:20;6.17;;;6.17;;
13603;SDS011;24578;48.264;11.436;2023-04-10T13:20:42;5.96;;;5.96;;
13603;SDS011;24578;48.264;11.436;2023-04-10T13:24:04;6.38;;;6.38;;
13603;SDS011;24578;48.264;11.436;2023-04-10T13:27:26;6.66;;;6.66;;
13603;SDS011;24578;48.264;11.436;2023-04-10T13:30:47;6.54;;;6.54;;
13603;SDS011;24578;48.264;11.436;2023-04-10T13:34:09;5.74;;;5.74;;
13603;SDS011;24578;48.264;11.436;2023-04-10T13:37:31;5.87;;;5.87;;
13603;SDS011;24578;48.264;11.436;2023-04-10T13:40:52;6.16;;;6.16;;
13603;SDS011;24578;48.264;11.436;2023-04-10T13:44:14;6.00;;;6.00;;
13603;SDS011;24578;48.264;11.436;2023-04-10T13:47:36;5.67;;;5.67;;
13603;SDS011;24578;48.264;11.436;2023-04-10T13:50:58;5.89;;;5.89;;
13603;SDS011;24578;48.264;11.436;2023-04-10T13:54:20;5.93;;;5.93;;
13603;SDS011;24578;48.264;11.436;2023-04-10T13:57:43;6.07;;;6.07;;
13603;SDS011;24578;48.264;11.436;2023-04-10T14:01:04;5.56;;;5.56;;
13603;SDS011;24578;48.264;11.436;2023-04-10T14:04:26;5.69;;;5.68;;
13603;SDS011;24578;48.264;11.436;2023-04-10T14:07:48;5.78;;;5.78;;
13603;SDS011;24578;48.264;11.436;2023-04-10T14:11:12;5.91;;;5.91;;
13603;SDS011;24578;48.264;11.436;2023-04-10T14:14:33;5.56;;;5.56;;
13603;SDS011;24578;48.264;11.436;2023-04-10T14:17:55;5.84;;;5.84;;
13603;SDS011;24578;48.264;11.436;2023-04-10T14:21:17;5.63;;;5.63;;
13603;SDS011;24578;48.264;11.436;2023-04-10T14:24:39;5.66;;;5.65;;
13603;SDS011;24578;48.264;11.436;2023-04-10T14:28:00;5.67;;;5.66;;
13603;SDS011;24578;48.264;11.436;2023-04-10T14:31:22;5.59;;;5.59;;
13603;SDS011;24578;48.264;11.436;2023-04-10T14:34:44;5.50;;;5.50;;
13603;SDS011;24578;48.264;11.436;2023-04-10T14:38:06;5.88;;;5.88;;
13603;SDS011;24578;48.264;11.436;2023-04-10T14:41:27;5.48;;;5.48;;
13603;SDS011;24578;48.264;11.436;2023-04-10T14:44:50;16.64;;;16.60;;
13603;SDS011;24578;48.264;11.436;2023-04-10T14:48:11;7.01;;;6.95;;
13603;SDS011;24578;48.264;11.436;2023-04-10T14:51:33;5.55;;;5.50;;
13603;SDS011;24578;48.264;11.436;2023-04-10T14:54:55;5.63;;;5.63;;
13603;SDS011;24578;48.264;11.436;2023-04-10T14:58:16;5.88;;;5.88;;
13603;SDS011;24578;48.264;11.436;2023-04-10T15:01:38;5.91;;;5.91;;
13603;SDS011;24578;48.264;11.436;2023-04-10T15:05:00;5.78;;;5.78;;
13603;SDS011;24578;48.264;11.436;2023-04-10T15:08:22;5.62;;;5.61;;
13603;SDS011;24578;48.264;11.436;2023-04-10T15:11:43;5.35;;;5.35;;
13603;SDS011;24578;48.264;11.436;2023-04-10T15:15:07;19.18;;;18.86;;
13603;SDS011;24578;48.264;11.436;2023-04-10T15:18:29;7.89;;;7.76;;
13603;SDS011;24578;48.264;11.436;2023-04-10T15:21:52;6.09;;;5.99;;
13603;SDS011;24578;48.264;11.436;2023-04-10T15:25:14;5.63;;;5.61;;
13603;SDS011;24578;48.264;11.436;2023-04-10T15:28:37;6.29;;;6.29;;
13603;SDS011;24578;48.264;11.436;2023-04-10T15:31:59;5.41;;;5.38;;
13603;SDS011;24578;48.264;11.436;2023-04-10T15:35:21;5.59;;;5.49;;
13603;SDS011;24578;48.264;11.436;2023-04-10T15:38:45;5.95;;;5.90;;
13603;SDS011;24578;48.264;11.436;2023-04-10T15:42:06;5.68;;;5.48;;
13603;SDS011;24578;48.264;11.436;2023-04-10T15:45:28;5.34;;;5.31;;
13603;SDS011;24578;48.264;11.436;2023-04-10T15:48:50;5.48;;;5.48;;
13603;SDS011;24578;48.264;11.436;2023-04-10T15:52:12;5.35;;;5.35;;
13603;SDS011;24578;48.264;11.436;2023-04-10T15:55:40;5.78;;;5.72;;
13603;SDS011;24578;48.264;11.436;2023-04-10T15:59:01;6.61;;;6.61;;
13603;SDS011;24578;48.264;11.436;2023-04-10T16:02:24;12.69;;;12.68;;
13603;SDS011;24578;48.264;11.436;2023-04-10T16:05:46;5.99;;;5.99;;
13603;SDS011;24578;48.264;11.436;2023-04-10T16:09:08;5.78;;;5.78;;
13603;SDS011;24578;48.264;11.436;2023-04-10T16:12:30;5.89;;;5.89;;
13603;SDS011;24578;48.264;11.436;2023-04-10T16:15:51;6.17;;;6.13;;
13603;SDS011;24578;48.264;11.436;2023-04-10T16:19:13;5.85;;;5.85;;
13603;SDS011;24578;48.264;11.436;2023-04-10T16:22:35;5.94;;;5.94;;
13603;SDS011;24578;48.264;11.436;2023-04-10T16:25:57;6.95;;;6.95;;
13603;SDS011;24578;48.264;11.436;2023-04-10T16:29:18;7.36;;;7.28;;
13603;SDS011;24578;48.264;11.436;2023-04-10T16:32:40;5.81;;;5.74;;
13603;SDS011;24578;48.264;11.436;2023-04-10T16:36:02;6.20;;;6.12;;
13603;SDS011;24578;48.264;11.436;2023-04-10T16:39:24;5.83;;;5.83;;
13603;SDS011;24578;48.264;11.436;2023-04-10T16:42:46;5.95;;;5.95;;
13603;SDS011;24578;48.264;11.436;2023-04-10T16:46:08;5.65;;;5.65;;
13603;SDS011;24578;48.264;11.436;2023-04-10T16:49:31;7.79;;;7.79;;
13603;SDS011;24578;48.264;11.436;2023-04-10T16:52:52;40.08;;;39.02;;
13603;SDS011;24578;48.264;11.436;2023-04-10T16:56:14;6.26;;;6.25;;
13603;SDS011;24578;48.264;11.436;2023-04-10T16:59:36;5.44;;;5.44;;
13603;SDS011;24578;48.264;11.436;2023-04-10T17:02:58;5.53;;;5.53;;
13603;SDS011;24578;48.264;11.436;2023-04-10T17:06:20;5.56;;;5.55;;
13603;SDS011;24578;48.264;11.436;2023-04-10T17:09:42;5.59;;;5.59;;
13603;SDS011;24578;48.264;11.436;2023-04-10T17:13:04;26.80;;;26.17;;
13603;SDS011;24578;48.264;11.436;2023-04-10T17:16:25;9.11;;;8.81;;
13603;SDS011;24578;48.264;11.436;2023-04-10T17:19:47;6.36;;;6.22;;
13603;SDS011;24578;48.264;11.436;2023-04-10T17:23:09;6.94;;;6.92;;
13603;SDS011;24578;48.264;11.436;2023-04-10T17:26:31;5.92;;;5.85;;
13603;SDS011;24578;48.264;11.436;2023-04-10T17:29:53;5.52;;;5.44;;
13603;SDS011;24578;48.264;11.436;2023-04-10T17:33:15;5.43;;;5.43;;
13603;SDS011;24578;48.264;11.436;2023-04-10T17:36:37;5.75;;;5.75;;
13603;SDS011;24578;48.264;11.436;2023-04-10T17:39:58;6.42;;;6.41;;
13603;SDS011;24578;48.264;11.436;2023-04-10T17:43:21;6.23;;;6.23;;
13603;SDS011;24578;48.264;11.436;2023-04-10T17:46:43;6.23;;;6.23;;
13603;SDS011;24578;48.264;11.436;2023-04-10T17:50:05;6.22;;;6.13;;
13603;SDS011;24578;48.264;11.436;2023-04-10T17:53:27;6.27;;;6.14;;
13603;SDS011;24578;48.264;11.436;2023-04-10T17:56:51;6.56;;;6.53;;
13603;SDS011;24578;48.264;11.436;2023-04-10T18:00:13;24.89;;;24.56;;
13603;SDS011;24578;48.264;11.436;2023-04-10T18:03:35;34.57;;;33.58;;
13603;SDS011;24578;48.264;11.436;2023-04-10T18:06:57;6.44;;;6.43;;
13603;SDS011;24578;48.264;11.436;2023-04-10T18:10:19;6.56;;;6.56;;
13603;SDS011;24578;48.264;11.436;2023-04-10T18:13:41;6.24;;;6.24;;
13603;SDS011;24578;48.264;11.436;2023-04-10T18:17:02;6.47;;;6.47;;
13603;SDS011;24578;48.264;11.436;2023-04-10T18:20:24;7.01;;;6.90;;
13603;SDS011;24578;48.264;11.436;2023-04-10T18:23:46;6.89;;;6.88;;
13603;SDS011;24578;48.264;11.436;2023-04-10T18:27:08;7.21;;;7.01;;
13603;SDS011;24578;48.264;11.436;2023-04-10T18:30:31;6.94;;;6.88;;
13603;SDS011;24578;48.264;11.436;2023-04-10T18:33:53;6.85;;;6.85;;
13603;SDS011;24578;48.264;11.436;2023-04-10T18:37:15;6.64;;;6.64;;
13603;SDS011;24578;48.264;11.436;2023-04-10T18:40:38;6.39;;;6.35;;
13603;SDS011;24578;48.264;11.436;2023-04-10T18:44:00;6.68;;;6.55;;
13603;SDS011;24578;48.264;11.436;2023-04-10T18:51:08;6.65;;;6.64;;
13603;SDS011;24578;48.264;11.436;2023-04-10T18:54:36;6.70;;;6.68;;
13603;SDS011;24578;48.264;11.436;2023-04-10T18:57:58;6.80;;;6.76;;
13603;SDS011;24578;48.264;11.436;2023-04-10T19:01:21;7.11;;;7.04;;
13603;SDS011;24578;48.264;11.436;2023-04-10T19:04:43;7.42;;;7.38;;
13603;SDS011;24578;48.264;11.436;2023-04-10T19:08:06;7.08;;;7.08;;
13603;SDS011;24578;48.264;11.436;2023-04-10T19:11:27;7.61;;;7.61;;
13603;SDS011;24578;48.264;11.436;2023-04-10T19:14:49;7.70;;;7.70;;
13603;SDS011;24578;48.264;11.436;2023-04-10T19:18:11;8.26;;;8.21;;
13603;SDS011;24578;48.264;11.436;2023-04-10T19:21:33;8.86;;;8.64;;
13603;SDS011;24578;48.264;11.436;2023-04-10T19:24:54;8.17;;;8.07;;
13603;SDS011;24578;48.264;11.436;2023-04-10T19:28:16;8.69;;;8.64;;
13603;SDS011;24578;48.264;11.436;2023-04-10T19:31:38;8.56;;;8.36;;
13603;SDS011;24578;48.264;11.436;2023-04-10T19:35:00;8.49;;;8.34;;
13603;SDS011;24578;48.264;11.436;2023-04-10T19:38:21;19.22;;;18.81;;
13603;SDS011;24578;48.264;11.436;2023-04-10T19:41:43;20.94;;;20.50;;
13603;SDS011;24578;48.264;11.436;2023-04-10T19:45:05;9.14;;;9.01;;
13603;SDS011;24578;48.264;11.436;2023-04-10T19:48:27;8.65;;;8.56;;
13603;SDS011;24578;48.264;11.436;2023-04-10T19:51:49;8.84;;;8.71;;
13603;SDS011;24578;48.264;11.436;2023-04-10T19:55:12;9.23;;;8.97;;
13603;SDS011;24578;48.264;11.436;2023-04-10T19:58:33;20.70;;;20.13;;
13603;SDS011;24578;48.264;11.436;2023-04-10T20:01:56;14.06;;;13.58;;
13603;SDS011;24578;48.264;11.436;2023-04-10T20:05:18;13.54;;;13.16;;
13603;SDS011;24578;48.264;11.436;2023-04-10T20:08:40;9.68;;;9.53;;
13603;SDS011;24578;48.264;11.436;2023-04-10T20:12:01;8.83;;;8.83;;
13603;SDS011;24578;48.264;11.436;2023-04-10T20:15:23;8.55;;;8.55;;
13603;SDS011;24578;48.264;11.436;2023-04-10T20:18:45;8.49;;;8.49;;
13603;SDS011;24578;48.264;11.436;2023-04-10T20:22:07;8.33;;;8.33;;
13603;SDS011;24578;48.264;11.436;2023-04-10T20:25:29;7.96;;;7.95;;
13603;SDS011;24578;48.264;11.436;2023-04-10T20:28:51;8.22;;;8.19;;
13603;SDS011;24578;48.264;11.436;2023-04-10T20:32:13;8.40;;;8.37;;
13603;SDS011;24578;48.264;11.436;2023-04-10T20:35:35;8.56;;;8.40;;
13603;SDS011;24578;48.264;11.436;2023-04-10T20:38:56;8.40;;;8.36;;